Time;durP1;ratioP1;P1;durP2;ratioP2;P2;SDS_P1;SDS_P2;PMS_P1;PMS_P2;Temp;Humidity;BMP_temperature;BMP_pressure;BME280_temperature;BME280_humidity;BME280_pressure;Samples;Min_cycle;Max_cycle;Signal;HPM_P1;HPM_P2
2022/12/27 00:01:33;;;;;;;8.85;4.43;;;;;;;2.80;94.38;102152.53;4998646;28;20217;-65
2022/12/27 00:03:58;;;;;;;12.90;5.05;;;;;;;2.78;94.93;102151.50;5003565;28;20014;-65
2022/12/27 00:06:25;;;;;;;10.70;4.57;;;;;;;2.78;94.93;102156.66;5005145;28;20265;-65
2022/12/27 00:08:51;;;;;;;10.50;4.45;;;;;;;2.78;94.75;102156.66;5008580;28;20021;-65
2022/12/27 00:11:20;;;;;;;9.63;4.68;;;;;;;2.78;94.83;102159.22;5004848;28;20022;-65
2022/12/27 00:13:45;;;;;;;12.48;4.70;;;;;;;2.79;94.86;102161.03;5004715;28;20071;-65
2022/12/27 00:16:13;;;;;;;10.82;4.50;;;;;;;2.77;94.96;102165.16;5004770;28;20014;-65
2022/12/27 00:18:40;;;;;;;9.70;4.60;;;;;;;2.78;94.93;102166.94;5010119;28;20257;-65
2022/12/27 00:21:07;;;;;;;10.77;4.22;;;;;;;2.77;95.12;102165.16;4999962;28;20081;-65
2022/12/27 00:23:35;;;;;;;13.20;4.50;;;;;;;2.77;95.18;102157.44;4999179;28;20188;-66
2022/12/27 00:26:09;;;;;;;7.93;4.30;;;;;;;2.77;95.30;102157.44;5003491;28;20027;-65
2022/12/27 00:28:35;;;;;;;9.27;4.57;;;;;;;2.77;95.32;102163.47;5002660;28;20027;-65
2022/12/27 00:31:00;;;;;;;9.77;4.40;;;;;;;2.77;95.50;102157.44;4996815;28;20086;-65
2022/12/27 00:33:27;;;;;;;11.80;4.50;;;;;;;2.79;95.55;102163.59;4998224;28;20033;-65
2022/12/27 00:35:53;;;;;;;9.52;4.05;;;;;;;2.78;95.76;102170.44;4994265;28;20233;-65
2022/12/27 00:38:19;;;;;;;8.85;4.20;;;;;;;2.80;95.70;102162.81;4993419;28;20022;-70
2022/12/27 00:40:45;;;;;;;9.15;4.43;;;;;;;2.79;95.60;102168.75;4999727;28;20030;-70
2022/12/27 00:43:10;;;;;;;10.50;4.72;;;;;;;2.78;95.84;102157.56;5004131;28;20015;-70
2022/12/27 00:45:35;;;;;;;10.02;4.53;;;;;;;2.77;95.44;102166.06;4996375;28;20276;-70
2022/12/27 00:48:00;;;;;;;10.38;4.80;;;;;;;2.79;95.80;102171.31;4997498;28;20058;-70
2022/12/27 00:50:26;;;;;;;10.52;4.18;;;;;;;2.80;96.39;102175.69;4999829;28;20022;-70
2022/12/27 00:52:51;;;;;;;13.02;5.18;;;;;;;2.81;95.75;102182.66;4997645;28;20173;-70
2022/12/27 00:55:17;;;;;;;12.27;4.28;;;;;;;2.81;96.24;102176.56;4997296;28;20092;-70
2022/12/27 00:57:42;;;;;;;10.10;4.05;;;;;;;2.82;95.74;102189.56;4991663;28;20083;-70
2022/12/27 01:00:08;;;;;;;11.02;4.50;;;;;;;2.82;96.03;102189.56;5001597;28;20375;-70
2022/12/27 01:02:33;;;;;;;12.27;4.50;;;;;;;2.83;95.96;102190.47;5000641;28;20046;-70
2022/12/27 01:04:58;;;;;;;11.93;4.50;;;;;;;2.85;96.38;102194.06;4989513;28;20094;-70
2022/12/27 01:07:24;;;;;;;8.70;4.00;;;;;;;2.85;95.85;102199.19;4992469;28;20459;-65
2022/12/27 01:09:49;;;;;;;13.13;4.38;;;;;;;2.85;96.33;102191.47;4994568;28;20029;-65
2022/12/27 01:12:15;;;;;;;9.73;4.50;;;;;;;2.85;96.43;102194.06;4997197;28;20014;-65
2022/12/27 01:14:40;;;;;;;11.10;4.45;;;;;;;2.84;95.99;102198.31;4994041;28;20030;-65
2022/12/27 01:17:06;;;;;;;12.32;4.25;;;;;;;2.85;96.15;102204.34;5000917;28;20080;-65
2022/12/27 01:19:34;;;;;;;10.13;4.53;;;;;;;2.86;96.33;102206.16;4985874;28;20101;-65
2022/12/27 01:21:59;;;;;;;10.55;4.57;;;;;;;2.85;96.14;102202.66;5001856;28;20176;-65
2022/12/27 01:24:24;;;;;;;11.77;4.10;;;;;;;2.84;96.55;102198.31;4993897;28;20084;-65
2022/12/27 01:26:50;;;;;;;8.43;3.95;;;;;;;2.84;96.19;102208.63;5003051;28;20000;-65
2022/12/27 01:29:15;;;;;;;9.10;3.90;;;;;;;2.83;96.53;102209.38;4984415;28;20034;-65
2022/12/27 01:31:40;;;;;;;12.98;4.40;;;;;;;2.83;95.99;102205.94;4989407;28;20025;-65
2022/12/27 01:34:05;;;;;;;8.15;3.78;;;;;;;2.82;96.77;102214.41;4992842;28;20050;-65
2022/12/27 01:36:31;;;;;;;8.60;4.18;;;;;;;2.82;96.85;102217.00;4989093;28;20027;-65
2022/12/27 01:38:57;;;;;;;7.93;3.97;;;;;;;2.82;97.31;102219.56;4992402;28;20053;-65
2022/12/27 01:44:38;;;;;;;8.68;4.18;;;;;;;2.82;97.51;102227.28;4990201;28;20031;-65
2022/12/27 01:47:33;;;;;;;9.57;3.40;;;;;;;2.82;97.48;102224.72;4978591;28;20050;-70
2022/12/27 01:50:17;;;;;;;8.60;3.85;;;;;;;2.81;97.39;102223.81;4997052;28;20034;-70
2022/12/27 01:52:56;;;;;;;10.85;3.90;;;;;;;2.83;97.72;102235.13;4977337;28;20204;-70
2022/12/27 01:55:26;;;;;;;9.10;3.90;;;;;;;2.83;97.97;102237.69;4971796;28;20034;-70
2022/12/27 01:57:54;;;;;;;9.35;3.50;;;;;;;2.84;97.97;102238.59;4974838;28;20045;-70
2022/12/27 02:00:19;;;;;;;8.70;3.67;;;;;;;2.84;98.01;102241.16;4988099;28;20045;-70
2022/12/27 02:02:45;;;;;;;9.02;3.83;;;;;;;2.84;98.71;102249.81;4978817;28;20154;-70
2022/12/27 02:05:13;;;;;;;8.45;3.83;;;;;;;2.85;98.40;102245.53;4993469;28;20288;-70
2022/12/27 02:07:58;;;;;;;10.90;3.90;;;;;;;2.84;98.47;102248.88;5002821;28;20050;-70
2022/12/27 02:10:24;;;;;;;8.15;3.67;;;;;;;2.83;98.59;102250.56;4996423;28;20273;-70
2022/12/27 02:12:49;;;;;;;8.65;4.18;;;;;;;2.82;98.68;102253.91;5004748;28;20026;-70
2022/12/27 02:15:15;;;;;;;9.30;3.70;;;;;;;2.83;98.59;102253.16;4995167;28;20022;-70
2022/12/27 02:17:40;;;;;;;8.60;3.92;;;;;;;2.83;98.84;102258.28;4998801;28;20037;-70
2022/12/27 02:20:11;;;;;;;11.13;3.63;;;;;;;2.84;98.40;102248.88;5001610;28;20025;-70
2022/12/27 02:26:04;;;;;;;12.32;3.60;;;;;;;2.86;99.16;102249.91;4996993;28;20025;-70
2022/12/27 02:28:57;;;;;;;9.82;3.80;;;;;;;2.86;99.18;102255.06;4997033;28;20069;-70
2022/12/27 02:31:34;;;;;;;9.18;3.60;;;;;;;2.86;99.45;102262.78;4992725;28;20089;-70
2022/12/27 02:34:05;;;;;;;11.32;3.60;;;;;;;2.87;99.47;102265.47;5001623;28;20228;-70
2022/12/27 02:36:35;;;;;;;10.27;3.40;;;;;;;2.86;99.38;102268.81;4991954;28;20027;-70
2022/12/27 02:39:01;;;;;;;10.18;3.40;;;;;;;2.87;99.33;102267.13;4995072;28;20173;-70
2022/12/27 02:53:03;;;;;;;9.45;3.30;;;;;;;2.88;100.00;102259.56;5001155;28;20081;-65
2022/12/27 02:57:07;;;;;;;13.20;3.20;;;;;;;2.89;100.00;102258.75;4997397;28;20033;-65
2022/12/27 02:58:37;;;;;;;10.15;3.78;;;;;;;2.90;100.00;102250.28;4999119;28;20109;-65
2022/12/27 03:03:58;;;;;;;7.97;2.75;;;;;;;2.89;100.00;102251.03;4995260;28;20151;-65
2022/12/27 03:07:00;;;;;;;9.38;3.55;;;;;;;2.91;100.00;102256.31;4995572;28;20026;-65
2022/12/27 03:15:56;;;;;;;7.93;2.63;;;;;;;2.92;100.00;102253.84;4994788;28;20134;-65
2022/12/27 03:18:41;;;;;;;8.23;2.78;;;;;;;2.93;100.00;102260.81;4997392;28;20095;-65
2022/12/27 03:26:44;;;;;;;8.40;2.70;;;;;;;2.95;100.00;102264.41;4999950;28;20049;-65
2022/12/27 03:35:05;;;;;;;8.32;2.40;;;;;;;2.98;100.00;102288.59;4999671;28;20332;-65
2022/12/27 03:43:09;;;;;;;7.60;2.92;;;;;;;2.99;100.00;102306.72;4992431;28;20295;-65
2022/12/27 03:43:27;;;;;;;10.10;3.30;;;;;;;3.00;100.00;102307.59;4990210;28;20049;-65
2022/12/27 03:49:16;;;;;;;8.57;2.85;;;;;;;3.03;100.00;102302.72;5000578;28;20271;-70
2022/12/27 03:51:48;;;;;;;9.93;3.00;;;;;;;3.02;100.00;102300.91;4998041;28;20029;-71
2022/12/27 03:54:27;;;;;;;8.00;2.67;;;;;;;3.01;100.00;102300.00;4993226;28;20030;-70
2022/12/27 03:56:56;;;;;;;9.90;2.83;;;;;;;3.01;100.00;102310.31;4994337;28;20269;-70
2022/12/27 03:59:21;;;;;;;7.43;2.47;;;;;;;3.01;100.00;102312.88;4992062;28;20032;-70
2022/12/27 04:01:47;;;;;;;6.70;2.90;;;;;;;3.00;100.00;102313.69;4997109;28;20034;-70
2022/12/27 04:04:12;;;;;;;6.60;2.55;;;;;;;3.00;100.00;102307.59;4988560;28;20341;-70
2022/12/27 04:06:37;;;;;;;8.55;2.70;;;;;;;3.00;100.00;102317.91;4997956;28;20035;-70
2022/12/27 04:36:23;;;;;;;7.85;2.50;;;;;;;2.98;100.00;102315.22;4990219;28;20048;-65
2022/12/27 04:38:48;;;;;;;7.97;2.63;;;;;;;2.94;100.00;102311.53;4990809;28;20030;-65
2022/12/27 04:55:28;;;;;;;7.85;2.67;;;;;;;2.90;100.00;102342.94;4991523;28;20041;-65
2022/12/27 04:57:55;;;;;;;8.15;2.80;;;;;;;2.87;100.00;102347.88;4999775;28;20037;-65
2022/12/27 05:03:11;;;;;;;8.30;2.50;;;;;;;2.86;100.00;102338.34;4989539;28;20224;-65
2022/12/27 05:05:37;;;;;;;7.88;2.80;;;;;;;2.89;100.00;102337.69;5010342;28;20026;-65
2022/12/27 05:16:17;;;;;;;5.55;2.50;;;;;;;2.95;100.00;102335.59;4994294;28;20228;-65
2022/12/27 05:18:42;;;;;;;10.63;2.83;;;;;;;2.94;100.00;102339.84;5001814;28;20022;-65
2022/12/27 05:21:08;;;;;;;8.18;2.72;;;;;;;2.93;100.00;102343.19;4999892;28;20017;-66
2022/12/27 05:26:19;;;;;;;6.28;2.50;;;;;;;2.91;100.00;102344.75;5002728;28;20311;-66
2022/12/27 05:28:46;;;;;;;8.75;2.60;;;;;;;2.88;100.00;102338.44;4993873;28;20208;-65
2022/12/27 05:31:11;;;;;;;10.63;3.08;;;;;;;2.87;100.00;102347.88;4991638;28;20065;-65
2022/12/27 05:33:36;;;;;;;8.73;2.95;;;;;;;2.88;100.00;102352.25;5000177;28;20042;-65
2022/12/27 05:36:02;;;;;;;9.77;3.10;;;;;;;2.88;100.00;102359.03;5002278;28;20025;-65
2022/12/27 05:38:27;;;;;;;8.80;2.78;;;;;;;2.88;100.00;102365.13;4993298;28;20089;-66
2022/12/27 05:40:59;;;;;;;12.07;2.88;;;;;;;2.93;100.00;102376.66;4993652;28;20241;-65
2022/12/27 05:43:25;;;;;;;8.98;2.85;;;;;;;2.97;100.00;102375.25;4997136;28;20049;-65
2022/12/27 05:45:51;;;;;;;6.65;2.53;;;;;;;3.02;100.00;102393.63;4998802;28;20077;-66
2022/12/27 05:48:16;;;;;;;9.13;2.78;;;;;;;3.04;100.00;102397.19;4995021;28;20196;-65
2022/12/27 05:50:41;;;;;;;10.65;3.03;;;;;;;3.07;100.00;102400.00;4998466;28;20026;-66
2022/12/27 05:53:07;;;;;;;10.00;2.80;;;;;;;3.09;100.00;102395.91;4995171;28;20026;-65
2022/12/27 05:55:32;;;;;;;8.65;3.17;;;;;;;3.11;100.00;102399.47;4997629;28;20037;-65
2022/12/27 05:57:57;;;;;;;11.05;2.90;;;;;;;3.12;100.00;102399.59;5000984;28;20018;-66
2022/12/27 06:00:22;;;;;;;6.95;2.83;;;;;;;3.13;100.00;102400.53;5002383;28;20177;-65
2022/12/27 06:02:48;;;;;;;9.95;2.80;;;;;;;3.15;100.00;102411.84;4992056;28;20042;-65
2022/12/27 06:05:13;;;;;;;7.68;2.72;;;;;;;3.16;100.00;102410.16;4995972;28;20029;-65
2022/12/27 06:07:38;;;;;;;8.23;2.50;;;;;;;3.15;100.00;102406.69;4996672;28;20022;-65
2022/12/27 06:10:05;;;;;;;8.75;2.67;;;;;;;3.14;100.00;102404.88;5008201;28;20041;-65
2022/12/27 06:12:31;;;;;;;7.38;3.10;;;;;;;3.14;100.00;102410.03;5003240;28;20033;-65
2022/12/27 06:14:56;;;;;;;8.10;2.70;;;;;;;3.11;100.00;102404.63;4993589;28;20169;-65
2022/12/27 06:17:21;;;;;;;9.02;2.83;;;;;;;3.07;100.00;102400.00;5002783;28;20023;-65
2022/12/27 06:19:46;;;;;;;7.45;2.58;;;;;;;3.04;100.00;102407.50;5003931;28;20014;-65
2022/12/27 06:22:12;;;;;;;9.07;2.70;;;;;;;3.01;100.00;102403.00;4995794;28;20221;-66
2022/12/27 06:24:37;;;;;;;9.38;3.20;;;;;;;3.01;100.00;102399.53;4992115;28;20022;-65
2022/12/27 06:27:02;;;;;;;8.00;2.58;;;;;;;3.00;100.00;102401.22;5002664;28;20253;-70
2022/12/27 06:29:27;;;;;;;8.90;2.85;;;;;;;3.00;100.00;102398.66;5006163;28;20064;-70
2022/12/27 06:31:53;;;;;;;9.63;2.58;;;;;;;2.99;100.00;102404.56;4996726;28;20070;-70
2022/12/27 06:34:18;;;;;;;8.68;2.83;;;;;;;2.98;100.00;102417.31;4999410;28;20030;-70
2022/12/27 06:36:49;;;;;;;8.98;2.60;;;;;;;2.94;100.00;102409.34;5001616;28;20038;-70
2022/12/27 06:39:16;;;;;;;13.20;3.10;;;;;;;2.93;100.00;102410.13;5001918;28;20045;-70
2022/12/27 06:41:41;;;;;;;8.20;2.60;;;;;;;2.92;100.00;102405.75;4993876;28;20034;-70
2022/12/27 06:44:07;;;;;;;8.07;2.72;;;;;;;2.90;100.00;102409.88;4995132;28;20022;-70
2022/12/27 06:46:32;;;;;;;8.90;2.65;;;;;;;2.89;100.00;102402.94;4993836;28;20037;-70
2022/12/27 06:48:57;;;;;;;8.15;2.38;;;;;;;2.85;100.00;102398.31;4994734;28;20033;-70
2022/12/27 06:51:22;;;;;;;9.10;2.67;;;;;;;2.83;100.00;102409.28;4994302;28;20057;-70
2022/12/27 06:53:49;;;;;;;8.93;2.85;;;;;;;2.83;100.00;102407.59;4993879;28;20027;-71
2022/12/27 06:56:18;;;;;;;8.05;2.65;;;;;;;2.81;100.00;102410.81;4993002;28;20063;-65
2022/12/27 06:58:45;;;;;;;7.40;2.60;;;;;;;2.77;100.00;102399.38;4993948;28;20226;-66
2022/12/27 07:01:14;;;;;;;7.65;2.58;;;;;;;2.73;100.00;102399.91;4994906;28;20030;-65
2022/12/27 07:03:39;;;;;;;7.97;2.87;;;;;;;2.71;100.00;102399.78;4993045;28;20042;-65
2022/12/27 07:06:07;;;;;;;9.35;2.88;;;;;;;2.69;100.00;102403.91;4997621;28;20073;-65
2022/12/27 07:08:33;;;;;;;6.80;2.67;;;;;;;2.65;100.00;102406.09;4993844;28;20065;-66
2022/12/27 07:11:05;;;;;;;8.43;2.85;;;;;;;2.61;100.00;102412.69;4993580;28;20101;-65
2022/12/27 07:13:38;;;;;;;7.22;3.00;;;;;;;2.59;100.00;102417.72;4990493;28;20196;-65
2022/12/27 07:16:06;;;;;;;11.15;3.30;;;;;;;2.58;100.00;102415.03;4990852;28;20014;-65
2022/12/27 07:18:32;;;;;;;10.10;3.08;;;;;;;2.56;100.00;102422.63;4997120;28;20025;-65
2022/12/27 07:20:57;;;;;;;10.13;3.13;;;;;;;2.55;100.00;102430.19;5001143;28;20022;-65
2022/12/27 07:23:22;;;;;;;10.90;3.13;;;;;;;2.52;100.00;102420.56;4998205;28;20189;-65
2022/12/27 07:25:47;;;;;;;6.97;2.83;;;;;;;2.51;100.00;102423.00;4999193;28;20021;-65
2022/12/27 07:28:13;;;;;;;9.05;2.83;;;;;;;2.49;100.00;102424.53;5001661;28;20037;-70
2022/12/27 07:30:40;;;;;;;7.28;2.95;;;;;;;2.48;100.00;102427.88;4997676;28;20097;-70
2022/12/27 07:33:06;;;;;;;7.40;3.40;;;;;;;2.46;100.00;102430.34;5002397;28;20029;-70
2022/12/27 07:35:31;;;;;;;9.45;3.50;;;;;;;2.43;100.00;102431.00;4997197;28;20027;-70
2022/12/27 07:37:56;;;;;;;7.82;3.08;;;;;;;2.42;100.00;102429.19;4986260;28;20173;-70
2022/12/27 07:40:21;;;;;;;7.57;3.35;;;;;;;2.43;100.00;102431.00;4993665;28;20376;-70
2022/12/27 07:42:47;;;;;;;9.95;3.25;;;;;;;2.44;100.00;102432.78;4993275;28;20029;-70
2022/12/27 07:45:12;;;;;;;10.88;3.58;;;;;;;2.44;100.00;102431.91;4994018;28;20192;-70
2022/12/27 07:47:37;;;;;;;9.98;3.35;;;;;;;2.44;100.00;102434.47;4993632;28;20039;-70
2022/12/27 07:50:03;;;;;;;8.32;3.45;;;;;;;2.44;100.00;102432.78;4994906;28;20261;-70
2022/12/27 07:52:28;;;;;;;11.45;4.05;;;;;;;2.46;100.00;102434.59;4994485;28;20022;-70
2022/12/27 07:54:53;;;;;;;9.90;3.60;;;;;;;2.46;100.00;102429.44;4993914;28;20025;-69
2022/12/27 07:57:19;;;;;;;8.10;3.50;;;;;;;2.44;100.00;102437.94;4993441;28;20046;-70
2022/12/27 07:59:44;;;;;;;9.48;3.55;;;;;;;2.46;100.00;102438.06;4992595;28;20030;-70
2022/12/27 08:02:09;;;;;;;10.35;3.67;;;;;;;2.48;100.00;102438.19;4993633;28;20049;-70
2022/12/27 08:04:37;;;;;;;11.75;3.28;;;;;;;2.48;100.00;102443.31;4994713;28;20248;-70
2022/12/27 08:07:06;;;;;;;12.52;3.65;;;;;;;2.50;100.00;102449.50;4993671;28;20057;-70
2022/12/27 08:09:35;;;;;;;8.48;3.45;;;;;;;2.51;100.00;102452.22;4992767;28;20026;-70
2022/12/27 08:12:00;;;;;;;11.88;3.58;;;;;;;2.53;100.00;102453.22;4995933;28;20037;-70
2022/12/27 08:14:26;;;;;;;13.57;3.80;;;;;;;2.55;100.00;102459.41;4994447;28;20029;-70
2022/12/27 08:16:51;;;;;;;8.85;3.67;;;;;;;2.55;100.00;102455.91;4993133;28;20192;-70
2022/12/27 08:19:16;;;;;;;8.35;3.83;;;;;;;2.56;100.00;102458.66;4993140;28;20030;-70
2022/12/27 08:21:41;;;;;;;10.90;3.97;;;;;;;2.58;100.00;102459.66;4992487;28;20287;-70
2022/12/27 08:24:07;;;;;;;12.38;4.35;;;;;;;2.60;100.00;102460.66;4992769;28;20030;-70
2022/12/27 08:26:32;;;;;;;13.48;4.60;;;;;;;2.64;100.00;102471.25;4993445;28;20022;-70
2022/12/27 08:28:57;;;;;;;12.00;4.47;;;;;;;2.66;100.00;102464.53;4991128;28;20264;-70
2022/12/27 08:31:23;;;;;;;8.57;4.32;;;;;;;2.67;100.00;102472.38;4994255;28;20018;-70
2022/12/27 08:33:49;;;;;;;11.90;4.00;;;;;;;2.70;100.00;102477.78;4997600;28;20022;-70
2022/12/27 08:36:15;;;;;;;8.80;4.28;;;;;;;2.71;100.00;102473.50;4994165;28;20136;-70
2022/12/27 08:38:41;;;;;;;9.63;4.13;;;;;;;2.73;100.00;102474.56;4995756;28;20025;-70
2022/12/27 08:41:06;;;;;;;9.07;4.22;;;;;;;2.73;100.00;102467.72;4990279;28;20030;-71
2022/12/27 08:43:31;;;;;;;13.60;4.22;;;;;;;2.74;100.00;102466.06;4988419;28;20046;-71
2022/12/27 08:46:04;;;;;;;9.23;4.35;;;;;;;2.75;100.00;102466.19;4991335;28;20026;-71
2022/12/27 08:48:32;;;;;;;10.88;4.22;;;;;;;2.78;100.00;102457.78;4995085;28;20027;-71
2022/12/27 08:51:03;;;;;;;11.77;4.10;;;;;;;2.80;100.00;102458.84;5000052;28;20029;-70
2022/12/27 08:53:28;;;;;;;11.48;4.45;;;;;;;2.83;100.00;102460.75;4990008;28;21699;-70
2022/12/27 08:55:55;;;;;;;9.95;4.30;;;;;;;2.84;100.00;102462.53;4991691;28;20113;-70
2022/12/27 08:58:22;;;;;;;12.20;4.70;;;;;;;2.86;100.00;102469.63;5023269;28;20026;-65
2022/12/27 09:00:48;;;;;;;10.38;4.38;;;;;;;2.89;100.00;102458.69;4994411;28;20185;-65
2022/12/27 09:03:17;;;;;;;15.07;4.63;;;;;;;2.91;100.00;102457.13;5002486;28;20030;-65
2022/12/27 09:05:42;;;;;;;11.10;4.43;;;;;;;2.94;100.00;102463.44;4995438;28;20991;-65
2022/12/27 09:08:09;;;;;;;10.98;4.30;;;;;;;2.98;100.00;102466.25;4993382;28;20061;-66
2022/12/27 09:10:34;;;;;;;12.10;4.47;;;;;;;3.00;100.00;102459.53;5001575;28;20084;-65
2022/12/27 09:13:00;;;;;;;11.00;4.30;;;;;;;3.02;100.00;102460.56;4998330;28;20018;-66
2022/12/27 09:15:25;;;;;;;11.60;4.68;;;;;;;3.04;100.00;102454.78;4994557;28;20050;-65
2022/12/27 09:17:50;;;;;;;10.90;4.20;;;;;;;3.07;100.00;102459.25;5009473;28;20025;-65
2022/12/27 09:20:15;;;;;;;10.13;4.60;;;;;;;3.09;100.00;102458.59;5004266;28;20264;-65
2022/12/27 09:22:41;;;;;;;7.88;4.30;;;;;;;3.12;100.00;102469.13;5004488;28;20098;-65
2022/12/27 09:25:07;;;;;;;9.07;3.72;;;;;;;3.15;100.00;102475.34;5006636;28;20025;-65
2022/12/27 09:27:34;;;;;;;11.90;4.50;;;;;;;3.17;100.00;102466.94;5009864;28;20142;-65
2022/12/27 09:29:59;;;;;;;11.75;4.38;;;;;;;3.20;100.00;102467.19;5003572;28;20076;-65
2022/12/27 09:32:26;;;;;;;8.75;4.45;;;;;;;3.23;100.00;102477.75;5004379;28;20030;-65
2022/12/27 09:34:52;;;;;;;9.00;3.78;;;;;;;3.26;100.00;102477.97;5006396;28;20060;-65
2022/12/27 09:37:17;;;;;;;7.60;4.03;;;;;;;3.30;100.00;102485.19;5018776;28;20030;-65
2022/12/27 09:39:42;;;;;;;9.85;3.80;;;;;;;3.34;100.00;102481.16;4994195;28;20022;-65
2022/12/27 09:42:29;;;;;;;9.85;4.10;;;;;;;3.37;100.00;102480.50;5010463;28;20025;-65
2022/12/27 09:45:18;;;;;;;10.98;4.40;;;;;;;3.43;100.00;102480.97;5002108;28;20022;-65
2022/12/27 09:48:03;;;;;;;13.68;4.47;;;;;;;3.48;100.00;102478.00;5001844;28;20269;-65
2022/12/27 09:50:33;;;;;;;9.85;4.07;;;;;;;3.52;100.00;102473.06;5004118;28;20038;-65
2022/12/27 09:53:05;;;;;;;10.07;4.18;;;;;;;3.57;100.00;102482.09;4995553;28;20113;-65
2022/12/27 09:55:40;;;;;;;9.60;3.72;;;;;;;3.61;100.00;102481.56;4999755;28;20086;-65
2022/12/27 09:58:31;;;;;;;13.23;4.50;;;;;;;3.67;100.00;102479.44;5003834;28;20038;-65
2022/12/27 10:00:56;;;;;;;8.80;4.50;;;;;;;3.72;100.00;102474.63;4997338;28;20034;-65
2022/12/27 10:03:25;;;;;;;8.93;3.90;;;;;;;3.77;100.00;102475.91;4996975;28;20037;-65
2022/12/27 10:06:16;;;;;;;9.30;4.00;;;;;;;3.81;100.00;102481.41;5002350;28;20198;-65
2022/12/27 10:09:03;;;;;;;9.85;4.13;;;;;;;3.88;100.00;102487.03;5000119;28;20038;-71
2022/12/27 10:12:07;;;;;;;9.75;3.70;;;;;;;3.93;100.00;102494.34;4997209;28;20042;-70
2022/12/27 10:14:41;;;;;;;9.85;4.20;;;;;;;4.00;100.00;102493.16;4988650;28;20026;-70
2022/12/27 10:17:09;;;;;;;8.73;3.95;;;;;;;4.04;100.00;102490.03;4998822;28;20038;-70
2022/12/27 10:20:09;;;;;;;11.52;3.97;;;;;;;4.09;100.00;102492.97;4998052;28;20033;-70
2022/12/27 10:22:59;;;;;;;10.98;4.10;;;;;;;4.14;100.00;102486.47;4992105;28;20041;-71
2022/12/27 10:25:25;;;;;;;;;;;;;;;4.21;100.00;102480.97;4993728;28;20027;-70
2022/12/27 10:27:58;;;;;;;6.47;3.38;;;;;;;4.24;100.00;102476.03;4991542;28;20092;-70
2022/12/27 10:30:24;;;;;;;9.10;3.92;;;;;;;4.28;100.00;102472.91;4994160;28;20033;-70
2022/12/27 10:32:49;;;;;;;10.75;3.83;;;;;;;4.31;100.00;102474.84;5001241;28;20022;-71
2022/12/27 10:35:18;;;;;;;8.10;3.60;;;;;;;4.36;100.00;102481.25;4998724;28;20097;-71
2022/12/27 10:37:44;;;;;;;7.72;4.00;;;;;;;4.39;100.00;102484.06;4994292;28;20027;-70
2022/12/27 10:40:18;;;;;;;13.48;5.97;;;;;;;4.43;100.00;102477.44;4998076;28;20030;-71
2022/12/27 10:43:02;;;;;;;12.68;5.70;;;;;;;4.48;100.00;102483.84;4995321;28;20025;-70
2022/12/27 10:45:38;;;;;;;12.68;5.97;;;;;;;4.53;100.00;102483.41;4996340;28;20050;-70
2022/12/27 10:48:15;;;;;;;13.98;8.23;;;;;;;4.60;100.00;102473.53;5001780;28;20041;-70
2022/12/27 10:50:49;;;;;;;12.75;6.20;;;;;;;4.65;100.00;102473.09;4999687;28;20026;-70
2022/12/27 10:53:28;;;;;;;6.40;3.47;;;;;;;4.68;100.00;102478.50;5003555;28;20026;-70
2022/12/27 10:56:13;;;;;;;13.95;7.68;;;;;;;4.71;100.00;102485.56;5004591;28;20176;-70
2022/12/27 10:58:44;;;;;;;14.75;10.32;;;;;;;4.75;100.00;102485.00;5001553;28;20033;-71
2022/12/27 11:01:15;;;;;;;10.98;5.82;;;;;;;4.78;100.00;102492.97;4994417;28;20033;-70
2022/12/27 11:03:40;;;;;;;12.35;6.30;;;;;;;4.82;100.00;102486.34;4993490;28;20089;-70
2022/12/27 11:06:18;;;;;;;7.07;3.85;;;;;;;4.83;100.00;102478.72;4999033;28;20085;-70
2022/12/27 11:08:43;;;;;;;10.23;4.18;;;;;;;4.86;100.00;102478.03;4995440;28;20028;-70
2022/12/27 11:11:23;;;;;;;11.15;4.25;;;;;;;4.89;100.00;102480.84;4997353;28;20053;-70
2022/12/27 11:13:50;;;;;;;9.52;3.90;;;;;;;4.91;100.00;102463.78;4999503;28;20022;-71
2022/12/27 11:16:21;;;;;;;8.77;3.80;;;;;;;4.95;100.00;102472.66;4996768;28;20094;-70
2022/12/27 11:18:52;;;;;;;8.70;3.63;;;;;;;4.98;100.00;102465.13;4998777;28;20303;-70
2022/12/27 11:21:18;;;;;;;11.15;4.28;;;;;;;5.01;100.00;102463.66;4993996;28;20037;-71
2022/12/27 11:23:49;;;;;;;8.68;3.78;;;;;;;5.05;100.00;102459.59;4996548;28;20065;-70
2022/12/27 11:26:27;;;;;;;7.72;3.90;;;;;;;5.10;100.00;102460.84;4991052;28;20034;-70
2022/12/27 11:28:54;;;;;;;7.50;4.20;;;;;;;5.12;100.00;102456.69;4995644;28;20031;-70
2022/12/27 11:31:52;;;;;;;9.10;3.85;;;;;;;5.19;100.00;102458.03;4994075;28;20022;-70
2022/12/27 11:34:26;;;;;;;10.17;3.97;;;;;;;5.23;100.00;102466.09;4982645;28;20034;-70
2022/12/27 11:36:55;;;;;;;10.15;3.92;;;;;;;5.28;100.00;102456.09;4999355;28;20140;-64
2022/12/27 11:39:43;;;;;;;7.68;3.28;;;;;;;5.33;100.00;102462.50;4996322;28;20200;-65
2022/12/27 11:42:37;;;;;;;8.00;3.57;;;;;;;5.36;100.00;102467.88;4993940;28;20014;-65
2022/12/27 11:45:18;;;;;;;8.80;3.58;;;;;;;5.39;100.00;102462.03;4997719;28;20282;-65
2022/12/27 11:48:10;;;;;;;7.35;3.38;;;;;;;5.44;100.00;102462.34;5015223;28;20034;-65
2022/12/27 11:50:56;;;;;;;7.43;3.40;;;;;;;5.46;100.00;102453.00;5005838;28;20302;-65
2022/12/27 11:53:52;;;;;;;6.97;3.00;;;;;;;5.47;100.00;102445.34;5013171;28;20080;-65
2022/12/27 11:56:34;;;;;;;9.00;3.15;;;;;;;5.50;100.00;102439.50;5004206;28;20046;-64
2022/12/27 11:59:26;;;;;;;10.90;5.13;;;;;;;5.51;100.00;102443.91;5000561;28;20022;-65
2022/12/27 12:02:24;;;;;;;9.23;3.47;;;;;;;5.50;100.00;102445.56;5005450;28;20028;-64
2022/12/27 12:05:15;;;;;;;8.15;3.33;;;;;;;5.49;99.66;102442.88;5005375;28;20077;-65
2022/12/27 12:08:01;;;;;;;7.90;3.65;;;;;;;5.47;99.03;102445.34;5009717;28;20169;-69
2022/12/27 12:10:42;;;;;;;7.68;3.70;;;;;;;5.46;99.51;102437.50;5004395;28;20073;-69
2022/12/27 12:13:31;;;;;;;9.52;3.38;;;;;;;5.45;99.63;102431.44;5005281;28;20018;-70
2022/12/27 12:16:29;;;;;;;8.38;3.35;;;;;;;5.44;99.17;102423.56;5003348;28;20313;-69
2022/12/27 12:19:11;;;;;;;11.73;3.50;;;;;;;5.43;99.32;102422.69;4998421;28;20057;-69
2022/12/27 12:21:39;;;;;;;8.35;3.13;;;;;;;5.42;99.19;102409.63;4997666;28;20018;-70
2022/12/27 12:24:27;;;;;;;6.28;3.08;;;;;;;5.40;99.02;102415.59;5004439;28;20056;-70
2022/12/27 12:27:13;;;;;;;8.30;3.28;;;;;;;5.42;99.54;102422.56;5004858;28;20045;-69
2022/12/27 12:30:02;;;;;;;5.93;2.83;;;;;;;5.39;99.19;102421.56;5004695;28;20045;-69
2022/12/27 12:32:33;;;;;;;7.28;3.30;;;;;;;5.42;99.40;102426.06;5005408;28;20158;-70
2022/12/27 12:35:15;;;;;;;7.20;3.25;;;;;;;5.42;99.13;102413.13;4993396;28;20038;-70
2022/12/27 12:38:04;;;;;;;7.30;3.00;;;;;;;5.44;99.85;102414.13;4993305;28;20037;-70
2022/12/27 12:41:07;;;;;;;8.20;3.07;;;;;;;5.46;99.24;102416.81;4994371;28;20256;-71
2022/12/27 12:43:58;;;;;;;7.75;3.25;;;;;;;5.45;99.19;102404.69;4999727;28;20018;-71
2022/12/27 12:46:34;;;;;;;8.65;3.40;;;;;;;5.46;99.17;102403.88;4999612;28;20069;-70
2022/12/27 12:49:43;;;;;;;9.13;3.13;;;;;;;5.45;99.39;102394.34;4999846;28;20024;-70
2022/12/27 12:52:52;;;;;;;7.55;3.80;;;;;;;5.44;98.86;102393.44;4985123;28;20057;-71
2022/12/27 12:55:27;;;;;;;8.75;4.05;;;;;;;5.44;98.88;102374.47;4998045;28;20041;-70
2022/12/27 12:58:07;;;;;;;7.70;3.20;;;;;;;5.43;99.34;102363.22;5003340;28;20252;-70
2022/12/27 13:01:15;;;;;;;10.45;3.38;;;;;;;5.46;99.41;102362.53;5002319;28;20272;-70
2022/12/27 13:04:00;;;;;;;8.20;2.67;;;;;;;5.47;99.49;102356.56;4998199;28;20101;-70
2022/12/27 13:06:44;;;;;;;9.57;3.35;;;;;;;5.48;99.49;102348.91;4995281;28;20038;-70
2022/12/27 13:09:25;;;;;;;6.28;2.88;;;;;;;5.50;99.40;102346.44;5002809;28;20154;-70
2022/12/27 13:12:07;;;;;;;10.75;4.55;;;;;;;5.53;99.71;102346.63;5002333;28;20053;-70
2022/12/27 13:14:53;;;;;;;15.00;5.72;;;;;;;5.53;99.56;102347.56;5003187;28;20085;-70
2022/12/27 13:18:03;;;;;;;47.55;14.98;;;;;;;5.57;99.65;102340.91;5002499;28;20448;-70
2022/12/27 13:20:56;;;;;;;27.20;9.00;;;;;;;5.55;99.28;102334.72;4961319;28;20034;-70
2022/12/27 13:23:40;;;;;;;44.67;15.25;;;;;;;5.54;98.93;102333.81;4961100;28;20023;-70
2022/12/27 13:26:15;;;;;;;16.17;4.95;;;;;;;5.52;99.22;102329.34;4992041;28;20138;-70